createdAt,value
2023-04-18T00:01:29.647Z,100.00
2023-04-18T00:03:56.686Z,100.00
2023-04-18T00:06:23.494Z,100.00
2023-04-18T00:08:50.147Z,100.00
2023-04-18T00:11:16.906Z,100.00
2023-04-18T00:13:44.398Z,100.00
2023-04-18T00:16:13.345Z,100.00
2023-04-18T00:18:40.495Z,100.00
2023-04-18T00:21:08.620Z,100.00
2023-04-18T00:23:36.156Z,100.00
2023-04-18T00:26:02.943Z,100.00
2023-04-18T00:28:29.742Z,100.00
2023-04-18T00:30:56.640Z,100.00
2023-04-18T00:33:23.423Z,100.00
2023-04-18T00:35:50.203Z,100.00
2023-04-18T00:38:16.909Z,100.00
2023-04-18T00:40:43.566Z,100.00
2023-04-18T00:43:13.585Z,100.00
2023-04-18T00:45:40.272Z,100.00
2023-04-18T00:48:07.288Z,100.00
2023-04-18T00:50:34.120Z,100.00
2023-04-18T00:53:01.010Z,100.00
2023-04-18T00:55:29.554Z,100.00
2023-04-18T00:57:56.261Z,100.00
2023-04-18T01:00:23.064Z,100.00
2023-04-18T01:02:53.199Z,100.00
2023-04-18T01:05:21.490Z,100.00
2023-04-18T01:07:48.927Z,100.00
2023-04-18T01:10:15.850Z,100.00
2023-04-18T01:12:42.495Z,100.00
2023-04-18T01:15:09.357Z,100.00
2023-04-18T01:17:36.039Z,100.00
2023-04-18T01:20:06.048Z,100.00
2023-04-18T01:22:33.270Z,100.00
2023-04-18T01:25:00.061Z,100.00
2023-04-18T01:27:26.846Z,100.00
2023-04-18T01:29:53.681Z,100.00
2023-04-18T01:32:20.689Z,100.00
2023-04-18T01:34:47.679Z,100.00
2023-04-18T01:37:14.509Z,100.00
2023-04-18T01:39:41.262Z,100.00
2023-04-18T01:42:08.078Z,100.00
2023-04-18T01:44:34.773Z,100.00
2023-04-18T01:47:01.595Z,100.00
2023-04-18T01:49:28.468Z,100.00
2023-04-18T01:51:55.212Z,100.00
2023-04-18T01:54:21.845Z,100.00
2023-04-18T01:56:48.543Z,100.00
2023-04-18T01:59:15.225Z,100.00
2023-04-18T02:01:42.862Z,100.00
2023-04-18T02:04:09.624Z,100.00
2023-04-18T02:06:36.369Z,100.00
2023-04-18T02:09:03.056Z,100.00
2023-04-18T02:11:30.035Z,100.00
2023-04-18T02:13:56.746Z,100.00
2023-04-18T02:16:23.591Z,100.00
2023-04-18T02:18:52.785Z,100.00
2023-04-18T02:21:19.505Z,100.00
2023-04-18T02:23:46.191Z,100.00
2023-04-18T02:26:12.898Z,100.00
2023-04-18T02:28:39.673Z,100.00
2023-04-18T02:31:07.862Z,100.00
2023-04-18T02:33:34.617Z,100.00
2023-04-18T02:36:01.871Z,100.00
2023-04-18T02:38:28.566Z,100.00
2023-04-18T02:40:56.060Z,100.00
2023-04-18T02:43:22.740Z,100.00
2023-04-18T02:45:49.541Z,100.00
2023-04-18T02:48:16.340Z,100.00
2023-04-18T02:50:43.058Z,100.00
2023-04-18T02:53:09.707Z,100.00
2023-04-18T02:55:37.251Z,100.00
2023-04-18T02:58:03.908Z,100.00
2023-04-18T03:00:30.602Z,100.00
2023-04-18T03:02:57.425Z,100.00
2023-04-18T03:05:24.249Z,100.00
2023-04-18T03:07:50.941Z,100.00
2023-04-18T03:10:17.768Z,100.00
2023-04-18T03:12:44.469Z,100.00
2023-04-18T03:15:11.479Z,100.00
2023-04-18T03:17:38.223Z,100.00
2023-04-18T03:20:05.693Z,100.00
2023-04-18T03:22:32.382Z,100.00
2023-04-18T03:25:00.686Z,100.00
2023-04-18T03:27:27.488Z,100.00
2023-04-18T03:29:54.138Z,100.00
2023-04-18T03:32:21.024Z,100.00
2023-04-18T03:34:48.715Z,100.00
2023-04-18T03:37:15.379Z,100.00
2023-04-18T03:39:42.101Z,100.00
2023-04-18T03:42:08.838Z,100.00
2023-04-18T03:44:35.579Z,100.00
2023-04-18T03:47:02.402Z,100.00
2023-04-18T03:49:29.083Z,100.00
2023-04-18T03:51:55.749Z,100.00
2023-04-18T03:54:22.406Z,100.00
2023-04-18T03:56:49.236Z,100.00
2023-04-18T03:59:16.320Z,100.00
2023-04-18T04:01:43.037Z,100.00
2023-04-18T04:04:12.150Z,100.00
2023-04-18T04:06:39.297Z,100.00
2023-04-18T04:09:06.409Z,100.00
2023-04-18T04:11:33.216Z,100.00
2023-04-18T04:13:59.972Z,100.00
2023-04-18T04:16:28.021Z,100.00
2023-04-18T04:18:54.717Z,100.00
2023-04-18T04:21:21.418Z,100.00
2023-04-18T04:23:48.179Z,100.00
2023-04-18T04:26:15.871Z,100.00
2023-04-18T04:28:46.346Z,100.00
2023-04-18T04:31:13.089Z,100.00
2023-04-18T04:33:41.032Z,100.00
2023-04-18T04:36:08.978Z,100.00
2023-04-18T04:38:38.313Z,100.00
2023-04-18T04:41:09.244Z,100.00
2023-04-18T04:43:36.268Z,100.00
2023-04-18T04:46:04.313Z,100.00
2023-04-18T04:48:31.097Z,100.00
2023-04-18T04:50:59.494Z,100.00
2023-04-18T04:53:28.189Z,100.00
2023-04-18T04:55:55.026Z,100.00
2023-04-18T04:58:21.683Z,100.00
2023-04-18T05:00:48.403Z,100.00
2023-04-18T05:03:15.522Z,100.00
2023-04-18T05:05:42.618Z,100.00
2023-04-18T05:08:09.292Z,100.00
2023-04-18T05:10:38.725Z,100.00
2023-04-18T05:13:05.455Z,100.00
2023-04-18T05:15:32.430Z,100.00
2023-04-18T05:17:59.322Z,100.00
2023-04-18T05:20:26.141Z,100.00
2023-04-18T05:22:52.812Z,100.00
2023-04-18T05:25:19.970Z,100.00
2023-04-18T05:27:47.158Z,100.00
2023-04-18T05:30:14.297Z,100.00
2023-04-18T05:32:41.087Z,100.00
2023-04-18T05:35:08.423Z,100.00
2023-04-18T05:37:35.466Z,100.00
2023-04-18T05:40:02.871Z,100.00
2023-04-18T05:42:29.560Z,100.00
2023-04-18T05:44:56.237Z,100.00
2023-04-18T05:47:24.223Z,100.00
2023-04-18T05:49:51.011Z,100.00
2023-04-18T05:52:17.696Z,100.00
2023-04-18T05:54:44.406Z,100.00
2023-04-18T05:57:11.139Z,100.00
2023-04-18T05:59:37.919Z,100.00
2023-04-18T06:02:04.724Z,100.00
2023-04-18T06:04:31.605Z,100.00
2023-04-18T06:06:58.537Z,100.00
2023-04-18T06:09:25.213Z,100.00
2023-04-18T06:11:51.930Z,100.00
2023-04-18T06:14:18.607Z,100.00
2023-04-18T06:16:45.302Z,100.00
2023-04-18T06:19:11.970Z,100.00
2023-04-18T06:21:39.566Z,100.00
2023-04-18T06:24:06.780Z,100.00
2023-04-18T06:26:33.560Z,100.00
2023-04-18T06:29:00.310Z,100.00
2023-04-18T06:31:27.128Z,100.00
2023-04-18T06:33:53.876Z,100.00
2023-04-18T06:36:21.421Z,100.00
2023-04-18T06:38:48.121Z,100.00
2023-04-18T06:41:15.914Z,100.00
2023-04-18T06:43:52.062Z,100.00
2023-04-18T06:46:28.671Z,100.00
2023-04-18T06:48:55.433Z,100.00
2023-04-18T06:51:22.164Z,100.00
2023-04-18T06:53:52.506Z,100.00
2023-04-18T06:56:20.580Z,100.00
2023-04-18T06:58:47.875Z,100.00
2023-04-18T07:01:14.717Z,100.00
2023-04-18T07:03:41.416Z,100.00
2023-04-18T07:06:10.572Z,100.00
2023-04-18T07:08:37.470Z,100.00
2023-04-18T07:11:04.299Z,100.00
2023-04-18T07:13:31.016Z,100.00
2023-04-18T07:15:57.763Z,100.00
2023-04-18T07:18:36.740Z,100.00
2023-04-18T07:21:07.493Z,100.00
2023-04-18T07:23:34.834Z,100.00
2023-04-18T07:26:02.884Z,100.00
2023-04-18T07:28:31.152Z,100.00
2023-04-18T07:30:58.220Z,100.00
2023-04-18T07:33:25.584Z,100.00
2023-04-18T07:35:53.096Z,100.00
2023-04-18T07:38:20.057Z,100.00
2023-04-18T07:40:47.107Z,100.00
2023-04-18T07:43:13.785Z,100.00
2023-04-18T07:45:43.439Z,100.00
2023-04-18T07:48:11.354Z,100.00
2023-04-18T07:50:38.130Z,100.00
2023-04-18T07:53:04.933Z,100.00
2023-04-18T07:55:31.904Z,100.00
2023-04-18T07:57:58.539Z,100.00
2023-04-18T08:00:25.272Z,100.00
2023-04-18T08:02:52.217Z,100.00
2023-04-18T08:05:19.913Z,100.00
2023-04-18T08:07:46.593Z,100.00
2023-04-18T08:10:13.367Z,100.00
2023-04-18T08:12:40.699Z,100.00
2023-04-18T08:15:08.179Z,100.00
2023-04-18T08:17:34.988Z,100.00
2023-04-18T08:20:05.067Z,100.00
2023-04-18T08:22:31.871Z,100.00
2023-04-18T08:25:05.086Z,100.00
2023-04-18T08:27:32.694Z,100.00
2023-04-18T08:29:59.534Z,100.00
2023-04-18T08:32:26.329Z,100.00
2023-04-18T08:34:53.097Z,100.00
2023-04-18T08:37:19.796Z,100.00
2023-04-18T08:39:46.493Z,100.00
2023-04-18T08:42:19.394Z,100.00
2023-04-18T08:44:47.265Z,100.00
2023-04-18T08:47:14.731Z,100.00
2023-04-18T08:49:42.688Z,100.00
2023-04-18T08:52:18.995Z,100.00
2023-04-18T08:54:47.217Z,100.00
2023-04-18T08:57:16.708Z,100.00
2023-04-18T08:59:47.117Z,100.00
2023-04-18T09:02:15.670Z,100.00
2023-04-18T09:04:52.671Z,100.00
2023-04-18T09:07:30.955Z,100.00
2023-04-18T09:09:58.212Z,100.00
2023-04-18T09:12:27.098Z,100.00
2023-04-18T09:14:59.686Z,100.00
2023-04-18T09:17:38.076Z,100.00
2023-04-18T09:20:06.180Z,100.00
2023-04-18T09:22:52.997Z,100.00
2023-04-18T09:25:40.056Z,100.00
2023-04-18T09:28:31.918Z,100.00
2023-04-18T09:31:13.379Z,100.00
2023-04-18T09:33:52.780Z,100.00
2023-04-18T09:36:23.827Z,100.00
2023-04-18T09:38:55.332Z,100.00
2023-04-18T09:41:23.339Z,100.00
2023-04-18T09:43:50.129Z,100.00
2023-04-18T09:46:21.757Z,100.00
2023-04-18T09:48:48.543Z,100.00
2023-04-18T09:51:16.670Z,100.00
2023-04-18T09:53:44.894Z,100.00
2023-04-18T09:56:28.237Z,100.00
2023-04-18T09:59:07.336Z,100.00
2023-04-18T10:01:34.995Z,100.00
2023-04-18T10:04:07.786Z,100.00
2023-04-18T10:06:38.503Z,100.00
2023-04-18T10:09:06.386Z,100.00
2023-04-18T10:11:33.455Z,100.00
2023-04-18T10:14:11.830Z,100.00
2023-04-18T10:16:39.633Z,100.00
2023-04-18T10:19:26.451Z,100.00
2023-04-18T10:22:01.229Z,100.00
2023-04-18T10:24:57.086Z,100.00
2023-04-18T10:27:48.400Z,100.00
2023-04-18T10:30:18.741Z,100.00
2023-04-18T10:32:48.754Z,100.00
2023-04-18T10:35:15.503Z,100.00
2023-04-18T10:37:52.329Z,100.00
2023-04-18T10:40:33.196Z,100.00
2023-04-18T10:43:00.130Z,100.00
2023-04-18T10:45:29.716Z,100.00
2023-04-18T10:48:32.627Z,100.00
2023-04-18T10:51:18.699Z,100.00
2023-04-18T10:53:52.377Z,100.00
2023-04-18T10:56:20.487Z,100.00
2023-04-18T10:58:51.287Z,100.00
2023-04-18T11:01:27.062Z,100.00
2023-04-18T11:03:55.873Z,100.00
2023-04-18T11:06:27.235Z,100.00
2023-04-18T11:09:13.854Z,100.00
2023-04-18T11:11:41.585Z,100.00
2023-04-18T11:14:08.444Z,100.00
2023-04-18T11:16:35.677Z,100.00
2023-04-18T11:19:20.040Z,100.00
2023-04-18T11:21:46.923Z,100.00
2023-04-18T11:24:22.000Z,100.00
2023-04-18T11:26:48.650Z,100.00
2023-04-18T11:29:17.951Z,100.00
2023-04-18T11:31:55.819Z,100.00
2023-04-18T11:34:30.401Z,100.00
2023-04-18T11:36:57.422Z,100.00
2023-04-18T11:39:24.464Z,100.00
2023-04-18T11:41:51.356Z,100.00
2023-04-18T11:44:18.800Z,100.00
2023-04-18T11:46:45.501Z,100.00
2023-04-18T11:49:32.306Z,100.00
2023-04-18T11:52:01.125Z,100.00
2023-04-18T11:54:41.752Z,100.00
2023-04-18T11:57:29.219Z,100.00
2023-04-18T11:59:57.891Z,100.00
2023-04-18T12:02:45.882Z,100.00
2023-04-18T12:05:24.301Z,100.00
2023-04-18T12:07:51.321Z,100.00
2023-04-18T12:10:28.050Z,100.00
2023-04-18T12:12:58.697Z,100.00
2023-04-18T12:15:30.144Z,100.00
2023-04-18T12:18:01.606Z,100.00
2023-04-18T12:20:36.447Z,100.00
2023-04-18T12:23:03.817Z,100.00
2023-04-18T12:25:31.629Z,100.00
2023-04-18T12:27:58.353Z,100.00
2023-04-18T12:30:27.916Z,100.00
2023-04-18T12:32:58.005Z,100.00
2023-04-18T12:35:25.651Z,100.00
2023-04-18T12:37:54.352Z,100.00
2023-04-18T12:40:22.976Z,100.00
2023-04-18T12:42:51.032Z,100.00
2023-04-18T12:45:19.071Z,100.00
2023-04-18T12:47:47.492Z,100.00
2023-04-18T12:50:19.262Z,100.00
2023-04-18T12:52:46.750Z,100.00
2023-04-18T12:55:15.554Z,100.00
2023-04-18T12:57:43.160Z,100.00
2023-04-18T13:00:11.213Z,100.00
2023-04-18T13:02:40.303Z,100.00
2023-04-18T13:05:09.292Z,100.00
2023-04-18T13:07:37.979Z,100.00
2023-04-18T13:10:05.300Z,100.00
2023-04-18T13:12:32.035Z,100.00
2023-04-18T13:14:58.690Z,100.00
2023-04-18T13:17:26.222Z,100.00
2023-04-18T13:19:52.916Z,100.00
2023-04-18T13:22:20.747Z,100.00
2023-04-18T13:24:48.243Z,100.00
2023-04-18T13:27:15.402Z,100.00
2023-04-18T13:29:43.457Z,100.00
2023-04-18T13:32:10.363Z,100.00
2023-04-18T13:34:39.089Z,100.00
2023-04-18T13:37:06.494Z,100.00
2023-04-18T13:39:33.709Z,100.00
2023-04-18T13:42:02.966Z,100.00
2023-04-18T13:44:30.831Z,100.00
2023-04-18T13:46:57.901Z,100.00
2023-04-18T13:49:24.639Z,100.00
2023-04-18T13:51:53.526Z,100.00
2023-04-18T13:54:20.606Z,100.00
2023-04-18T13:56:47.352Z,100.00
2023-04-18T13:59:15.047Z,100.00
2023-04-18T14:01:42.829Z,100.00
2023-04-18T14:04:09.681Z,100.00
2023-04-18T14:06:36.609Z,100.00
2023-04-18T14:09:03.354Z,100.00
2023-04-18T14:11:30.120Z,100.00
2023-04-18T14:13:56.775Z,100.00
2023-04-18T14:16:23.781Z,100.00
2023-04-18T14:18:50.661Z,100.00
2023-04-18T14:21:17.408Z,100.00
2023-04-18T14:23:44.050Z,100.00
2023-04-18T14:26:11.217Z,100.00
2023-04-18T14:28:37.946Z,100.00
2023-04-18T14:31:06.502Z,100.00
2023-04-18T14:33:34.138Z,100.00
2023-04-18T14:36:02.470Z,100.00
2023-04-18T14:38:29.216Z,100.00
2023-04-18T14:40:56.019Z,100.00
2023-04-18T14:43:22.769Z,100.00
2023-04-18T14:45:49.699Z,100.00
2023-04-18T14:48:16.827Z,100.00
2023-04-18T14:50:43.865Z,100.00
2023-04-18T14:53:11.110Z,100.00
2023-04-18T14:55:37.945Z,100.00
2023-04-18T14:58:04.605Z,100.00
2023-04-18T15:00:32.465Z,100.00
2023-04-18T15:02:59.327Z,100.00
2023-04-18T15:05:26.513Z,100.00
2023-04-18T15:07:53.278Z,100.00
2023-04-18T15:10:22.716Z,100.00
2023-04-18T15:12:51.073Z,100.00
2023-04-18T15:15:19.411Z,100.00
2023-04-18T15:17:46.108Z,100.00
2023-04-18T15:20:13.087Z,100.00
2023-04-18T15:22:39.828Z,100.00
2023-04-18T15:25:07.350Z,100.00
2023-04-18T15:27:34.006Z,100.00
2023-04-18T15:30:00.851Z,100.00
2023-04-18T15:32:27.601Z,100.00
2023-04-18T15:34:54.307Z,100.00
2023-04-18T15:37:21.513Z,100.00
2023-04-18T15:39:48.254Z,97.12
2023-04-18T15:42:14.970Z,93.63
2023-04-18T15:44:41.631Z,88.26
2023-04-18T15:47:08.353Z,88.65
2023-04-18T15:49:38.623Z,89.00
2023-04-18T15:52:06.848Z,90.23
2023-04-18T15:54:33.540Z,89.81
2023-04-18T15:57:00.169Z,89.43
2023-04-18T15:59:26.906Z,87.50
2023-04-18T16:01:53.714Z,85.71
2023-04-18T16:04:20.479Z,85.10
2023-04-18T16:06:47.184Z,84.20
2023-04-18T16:09:14.464Z,82.17
2023-04-18T16:11:41.196Z,80.88
2023-04-18T16:14:07.892Z,79.86
2023-04-18T16:16:34.587Z,80.19
2023-04-18T16:19:01.267Z,80.47
2023-04-18T16:21:28.379Z,79.74
2023-04-18T16:23:55.070Z,80.94
2023-04-18T16:26:23.762Z,82.54
2023-04-18T16:28:50.955Z,85.32
2023-04-18T16:31:17.662Z,88.56
2023-04-18T16:33:45.365Z,89.44
2023-04-18T16:36:12.220Z,89.75
2023-04-18T16:38:38.924Z,88.69
2023-04-18T16:41:05.883Z,89.43
2023-04-18T16:43:36.319Z,88.44
2023-04-18T16:46:03.400Z,86.15
2023-04-18T16:48:30.233Z,82.81
2023-04-18T16:50:57.379Z,81.63
2023-04-18T16:53:24.603Z,80.07
2023-04-18T16:55:53.042Z,79.26
2023-04-18T16:58:21.170Z,78.61
2023-04-18T17:00:47.835Z,78.06
2023-04-18T17:03:14.576Z,78.16
2023-04-18T17:05:41.420Z,79.04
2023-04-18T17:08:08.668Z,77.71
2023-04-18T17:10:35.474Z,77.69
2023-04-18T17:13:03.404Z,76.52
2023-04-18T17:15:30.788Z,77.15
2023-04-18T17:18:00.269Z,76.91
2023-04-18T17:20:28.028Z,76.42
2023-04-18T17:22:55.254Z,76.61
2023-04-18T17:25:22.134Z,75.96
2023-04-18T17:27:48.888Z,76.56
2023-04-18T17:30:15.702Z,75.58
2023-04-18T17:32:45.901Z,76.34
2023-04-18T17:35:14.842Z,76.50
2023-04-18T17:37:42.748Z,77.12
2023-04-18T17:40:11.408Z,78.67
2023-04-18T17:42:38.342Z,78.81
2023-04-18T17:45:06.902Z,79.00
2023-04-18T17:47:34.613Z,80.65
2023-04-18T17:50:01.427Z,81.31
2023-04-18T17:52:31.237Z,81.47
2023-04-18T17:54:59.487Z,83.12
2023-04-18T17:57:26.702Z,86.51
2023-04-18T17:59:53.693Z,88.20
2023-04-18T18:02:20.539Z,90.59
2023-04-18T18:04:47.313Z,92.36
2023-04-18T18:07:14.077Z,91.88
2023-04-18T18:09:44.564Z,93.27
2023-04-18T18:12:11.727Z,92.51
2023-04-18T18:14:40.435Z,93.63
2023-04-18T18:17:07.451Z,94.18
2023-04-18T18:19:37.498Z,93.80
2023-04-18T18:22:04.265Z,94.17
2023-04-18T18:24:31.115Z,95.38
2023-04-18T18:26:58.136Z,95.64
2023-04-18T18:29:25.055Z,97.26
2023-04-18T18:31:51.755Z,97.22
2023-04-18T18:34:19.924Z,97.54
2023-04-18T18:36:47.231Z,99.15
2023-04-18T18:39:16.529Z,98.88
2023-04-18T18:41:43.666Z,98.34
2023-04-18T18:44:14.491Z,98.99
2023-04-18T18:46:43.163Z,97.93
2023-04-18T18:49:10.122Z,98.29
2023-04-18T18:51:37.171Z,99.25
2023-04-18T18:54:03.985Z,100.00
2023-04-18T18:56:30.690Z,100.00
2023-04-18T18:58:57.376Z,100.00
2023-04-18T19:01:24.137Z,100.00
2023-04-18T19:03:51.168Z,100.00
2023-04-18T19:06:18.087Z,98.11
2023-04-18T19:08:44.928Z,97.19
2023-04-18T19:11:12.793Z,97.39
2023-04-18T19:13:39.715Z,96.58
2023-04-18T19:16:06.511Z,96.57
2023-04-18T19:18:33.450Z,95.81
2023-04-18T19:21:00.164Z,96.42
2023-04-18T19:23:27.822Z,97.39
2023-04-18T19:25:54.754Z,96.94
2023-04-18T19:28:22.867Z,97.42
2023-04-18T19:30:50.298Z,97.79
2023-04-18T19:33:17.350Z,96.56
2023-04-18T19:35:44.060Z,96.49
2023-04-18T19:38:10.755Z,95.24
2023-04-18T19:40:37.752Z,94.47
2023-04-18T19:43:04.417Z,95.30
2023-04-18T19:45:31.715Z,94.97
2023-04-18T19:47:58.517Z,95.44
2023-04-18T19:50:25.370Z,97.15
2023-04-18T19:52:52.028Z,98.61
2023-04-18T19:55:18.709Z,100.00
2023-04-18T19:57:45.928Z,100.00
2023-04-18T20:00:13.452Z,100.00
2023-04-18T20:02:41.408Z,100.00
2023-04-18T20:05:09.297Z,100.00
2023-04-18T20:07:36.278Z,100.00
2023-04-18T20:10:04.362Z,100.00
2023-04-18T20:12:31.482Z,100.00
2023-04-18T20:14:59.001Z,100.00
2023-04-18T20:17:30.508Z,100.00
2023-04-18T20:19:57.829Z,100.00
2023-04-18T20:22:27.408Z,100.00
2023-04-18T20:24:57.121Z,100.00
2023-04-18T20:27:24.420Z,100.00
2023-04-18T20:29:51.156Z,100.00
2023-04-18T20:32:17.823Z,100.00
2023-04-18T20:34:46.639Z,100.00
2023-04-18T20:37:15.530Z,100.00
2023-04-18T20:39:42.343Z,100.00
2023-04-18T20:42:14.189Z,100.00
2023-04-18T20:44:43.247Z,100.00
2023-04-18T20:47:09.926Z,100.00
2023-04-18T20:49:36.730Z,100.00
2023-04-18T20:52:03.654Z,100.00
2023-04-18T20:54:30.488Z,100.00
2023-04-18T20:56:57.195Z,100.00
2023-04-18T20:59:24.126Z,100.00
2023-04-18T21:01:51.054Z,100.00
2023-04-18T21:04:18.085Z,100.00
2023-04-18T21:06:45.066Z,100.00
2023-04-18T21:09:11.842Z,100.00
2023-04-18T21:11:38.598Z,100.00
2023-04-18T21:14:06.754Z,100.00
2023-04-18T21:16:33.946Z,100.00
2023-04-18T21:19:00.699Z,100.00
2023-04-18T21:21:27.386Z,100.00
2023-04-18T21:23:54.146Z,100.00
2023-04-18T21:26:21.096Z,100.00
2023-04-18T21:28:56.325Z,100.00
2023-04-18T21:31:23.578Z,100.00
2023-04-18T21:33:57.326Z,100.00
2023-04-18T21:36:25.004Z,100.00
2023-04-18T21:38:53.313Z,100.00
2023-04-18T21:41:20.850Z,100.00
2023-04-18T21:43:47.882Z,100.00
2023-04-18T21:46:15.262Z,100.00
2023-04-18T21:48:43.549Z,100.00
2023-04-18T21:51:11.947Z,100.00
2023-04-18T21:53:39.037Z,100.00
2023-04-18T21:56:06.389Z,100.00
2023-04-18T21:58:33.445Z,100.00
2023-04-18T22:01:00.321Z,100.00
2023-04-18T22:03:29.049Z,100.00
2023-04-18T22:05:56.619Z,100.00
2023-04-18T22:08:26.519Z,100.00
2023-04-18T22:10:58.198Z,100.00
2023-04-18T22:13:30.145Z,100.00
2023-04-18T22:15:58.269Z,100.00
2023-04-18T22:18:25.457Z,100.00
2023-04-18T22:20:53.775Z,100.00
2023-04-18T22:23:20.715Z,100.00
2023-04-18T22:25:47.765Z,100.00
2023-04-18T22:28:14.585Z,100.00
2023-04-18T22:30:41.586Z,100.00
2023-04-18T22:33:09.257Z,100.00
2023-04-18T22:35:35.965Z,100.00
2023-04-18T22:38:02.655Z,100.00
2023-04-18T22:40:29.360Z,100.00
2023-04-18T22:42:56.097Z,100.00
2023-04-18T22:45:22.924Z,100.00
2023-04-18T22:47:49.602Z,100.00
2023-04-18T22:50:16.400Z,100.00
2023-04-18T22:52:43.077Z,100.00
2023-04-18T22:55:10.048Z,100.00
2023-04-18T22:57:38.476Z,100.00
2023-04-18T23:00:06.676Z,100.00
2023-04-18T23:02:33.495Z,100.00
2023-04-18T23:05:02.408Z,100.00
2023-04-18T23:07:29.200Z,100.00
2023-04-18T23:09:56.052Z,100.00
2023-04-18T23:12:22.827Z,100.00
2023-04-18T23:14:49.789Z,100.00
2023-04-18T23:17:16.669Z,100.00
2023-04-18T23:19:45.137Z,100.00
2023-04-18T23:22:11.953Z,100.00
2023-04-18T23:24:38.996Z,100.00
2023-04-18T23:27:05.913Z,100.00
2023-04-18T23:29:37.764Z,100.00
2023-04-18T23:32:05.694Z,100.00
2023-04-18T23:34:32.408Z,100.00
2023-04-18T23:37:00.099Z,100.00
2023-04-18T23:39:26.907Z,100.00
2023-04-18T23:41:53.585Z,100.00
2023-04-18T23:44:20.465Z,100.00
2023-04-18T23:46:47.859Z,100.00
2023-04-18T23:49:15.086Z,100.00
2023-04-18T23:51:42.168Z,100.00
2023-04-18T23:54:08.958Z,100.00
2023-04-18T23:56:35.689Z,100.00
2023-04-18T23:59:02.570Z,100.00
